| time (UTC) | temp C | wind direction | speed KPH | gust KPH | rain 1hr cm | rain 24hr cm | rain mn cm | humidity % | barometer mb |
| 20260505151517 | 30 | 86 | 16.1 | 27.4 | 0.00 | 0.00 | 0.00 | 77 | 1016.7 |
| 20260505124520 | 28 | 153 | 12.9 | 27.4 | 0.00 | 0.00 | 0.00 | 82 | 1016.3 |
| 20260505123025 | 28 | 113 | 4.8 | 14.5 | 0.00 | 0.00 | 0.00 | 84 | 1016.3 |
| 20260505121526 | 27 | 53 | 1.6 | 12.9 | 0.00 | 0.00 | 0.00 | 85 | 1016.3 |
| 20260505120031 | 26 | 72 | 1.6 | 6.4 | 0.00 | 0.00 | 0.00 | 87 | 1016.3 |
| 20260505114526 | 25 | 24 | 0.0 | 8.0 | 0.00 | 0.00 | 0.00 | 88 | 1016.3 |
| 20260505113025 | 24 | 20 | 3.2 | 6.4 | 0.00 | 0.00 | 0.00 | 90 | 1016.1 |
| 20260505111523 | 23 | 26 | 0.0 | 3.2 | 0.00 | 0.00 | 0.00 | 92 | 1016.0 |
| 20260505101515 | 22 | 27 | 0.0 | 6.4 | 0.00 | 0.00 | 0.00 | 92 | 1015.4 |
| 20260505100013 | 22 | 33 | 1.6 | 6.4 | 0.00 | 0.00 | 0.00 | 92 | 1015.3 |
| 20260505094504 | 22 | 38 | 0.0 | 4.8 | 0.00 | 0.00 | 0.00 | 92 | 1015.1 |
| 20260505093017 | 22 | 38 | 1.6 | 4.8 | 0.00 | 0.00 | 0.00 | 92 | 1014.9 |
| 20260505091505 | 21 | 38 | 0.0 | 4.8 | 0.00 | 0.00 | 0.00 | 92 | 1014.8 |
| 20260505090006 | 22 | 38 | 0.0 | 1.6 | 0.00 | 0.00 | 0.00 | 92 | 1014.8 |
| 20260505084508 | 22 | 38 | 0.0 | 1.6 | 0.00 | 0.00 | 0.00 | 91 | 1014.7 |
| 20260505083008 | 22 | 38 | 0.0 | 1.6 | 0.00 | 0.00 | 0.00 | 90 | 1014.6 |
| 20260505081504 | 22 | 38 | 0.0 | 3.2 | 0.00 | 0.00 | 0.00 | 90 | 1014.7 |
| 20260505080004 | 22 | 38 | 0.0 | 3.2 | 0.00 | 0.00 | 0.00 | 91 | 1014.8 |
| 20260505074506 | 22 | 37 | 0.0 | 4.8 | 0.00 | 0.00 | 0.00 | 91 | 1014.8 |
| 20260505073010 | 22 | 36 | 1.6 | 3.2 | 0.00 | 0.00 | 0.00 | 91 | 1014.7 |
| 20260505071507 | 22 | 36 | 0.0 | 3.2 | 0.00 | 0.00 | 0.00 | 91 | 1014.7 |
| 20260505070005 | 22 | 36 | 0.0 | 0.0 | 0.00 | 0.00 | 0.00 | 91 | 1014.8 |
| 20260505064506 | 22 | 36 | 0.0 | 3.2 | 0.00 | 0.00 | 0.00 | 91 | 1014.9 |
| 20260505063013 | 23 | 36 | 0.0 | 1.6 | 0.00 | 0.00 | 0.00 | 90 | 1014.9 |
| 20260505061510 | 23 | 36 | 0.0 | 1.6 | 0.00 | 0.00 | 0.00 | 90 | 1015.0 |
| 20260505060009 | 23 | 36 | 1.6 | 6.4 | 0.00 | 0.00 | 0.00 | 90 | 1015.1 |
| 20260505054507 | 23 | 34 | 1.6 | 6.4 | 0.00 | 0.00 | 0.00 | 91 | 1015.2 |
| 20260505053012 | 23 | 28 | 0.0 | 6.4 | 0.00 | 0.00 | 0.00 | 91 | 1015.3 |
| 20260505051529 | 23 | 32 | 3.2 | 6.4 | 0.00 | 0.00 | 0.00 | 91 | 1015.5 |
| 20260505041512 | 23 | 80 | 0.0 | 1.6 | 0.00 | 0.00 | 0.00 | 90 | 1016.2 |
| 20260505040014 | 23 | 80 | 0.0 | 0.0 | 0.00 | 0.00 | 0.00 | 90 | 1016.5 |
| 20260505034515 | 23 | 80 | 0.0 | 3.2 | 0.00 | 0.00 | 0.00 | 90 | 1016.7 |
| 20260505033012 | 24 | 80 | 0.0 | 1.6 | 0.00 | 0.00 | 0.00 | 89 | 1016.7 |
| 20260505031514 | 24 | 80 | 0.0 | 1.6 | 0.00 | 0.00 | 0.00 | 89 | 1016.8 |
| 20260505030012 | 25 | 80 | 0.0 | 1.6 | 0.00 | 0.00 | 0.00 | 89 | 1016.9 |
| 20260505024512 | 25 | 80 | 0.0 | 1.6 | 0.00 | 0.00 | 0.00 | 89 | 1016.8 |
| 20260505023016 | 25 | 80 | 0.0 | 3.2 | 0.00 | 0.00 | 0.00 | 89 | 1016.7 |
| 20260505021514 | 25 | 80 | 0.0 | 0.0 | 0.00 | 0.00 | 0.00 | 88 | 1016.7 |
| 20260505020015 | 25 | 80 | 0.0 | 1.6 | 0.00 | 0.00 | 0.00 | 88 | 1016.6 |
| 20260505014514 | 25 | 80 | 0.0 | 3.2 | 0.00 | 0.00 | 0.00 | 88 | 1016.3 |
| 20260505013016 | 25 | 80 | 0.0 | 0.0 | 0.00 | 0.00 | 0.00 | 88 | 1016.2 |
| 20260505011517 | 26 | 80 | 0.0 | 0.0 | 0.00 | 0.00 | 0.00 | 87 | 1016.0 |
| 20260505010011 | 26 | 80 | 0.0 | 3.2 | 0.00 | 0.00 | 0.00 | 87 | 1015.9 |
| 20260505004518 | 26 | 80 | 0.0 | 3.2 | 0.00 | 0.00 | 0.00 | 86 | 1015.7 |
| 20260505003021 | 26 | 80 | 0.0 | 3.2 | 0.00 | 0.00 | 0.00 | 86 | 1015.7 |
| 20260505001518 | 26 | 80 | 0.0 | 3.2 | 0.00 | 0.00 | 0.00 | 85 | 1015.6 |
| 20260505000018 | 26 | 92 | 0.0 | 3.2 | 0.00 | 0.00 | 0.00 | 85 | 1015.6 |
| 20260504234515 | 26 | 111 | 0.0 | 3.2 | 0.00 | 0.00 | 0.00 | 85 | 1015.2 |
| 20260504233020 | 27 | 112 | 0.0 | 4.8 | 0.00 | 0.00 | 0.00 | 85 | 1015.2 |
| 20260504231517 | 27 | 112 | 1.6 | 6.4 | 0.00 | 0.00 | 0.00 | 84 | 1015.2 |
| 20260504230021 | 27 | 123 | 1.6 | 11.3 | 0.00 | 0.00 | 0.00 | 83 | 1015.2 |
| 20260504224521 | 27 | 129 | 1.6 | 9.7 | 0.00 | 0.00 | 0.00 | 83 | 1015.1 |
| 20260504223018 | 27 | 126 | 6.4 | 12.9 | 0.00 | 0.00 | 0.00 | 82 | 1014.7 |
| 20260504221528 | 28 | 127 | 1.6 | 11.3 | 0.00 | 0.00 | 0.00 | 82 | 1014.5 |
| 20260504220026 | 28 | 103 | 6.4 | 14.5 | 0.00 | 0.00 | 0.00 | 80 | 1014.5 |
| 20260504214531 | 28 | 137 | 4.8 | 16.1 | 0.00 | 0.00 | 0.00 | 80 | 1014.2 |
| 20260504213026 | 29 | 90 | 6.4 | 16.1 | 0.00 | 0.00 | 0.00 | 76 | 1014.1 |
| 20260504211527 | 29 | 135 | 8.0 | 17.7 | 0.00 | 0.00 | 0.00 | 77 | 1014.1 |
| 20260504210032 | 29 | 98 | 4.8 | 19.3 | 0.00 | 0.00 | 0.00 | 78 | 1014.1 |
| 20260504204533 | 29 | 140 | 9.7 | 20.9 | 0.00 | 0.00 | 0.00 | 78 | 1014.0 |
| 20260504203039 | 30 | 95 | 6.4 | 25.7 | 0.00 | 0.00 | 0.00 | 77 | 1014.2 |
| 20260504201525 | 30 | 153 | 8.0 | 20.9 | 0.00 | 0.00 | 0.00 | 77 | 1014.2 |
| 20260504200026 | 30 | 130 | 11.3 | 25.7 | 0.00 | 0.00 | 0.00 | 74 | 1014.3 |
| 20260504194533 | 30 | 119 | 6.4 | 24.1 | 0.00 | 0.00 | 0.00 | 75 | 1014.4 |
| 20260504193026 | 30 | 136 | 16.1 | 29.0 | 0.00 | 0.00 | 0.00 | 73 | 1014.5 |
| 20260504191521 | 30 | 120 | 11.3 | 27.4 | 0.00 | 0.00 | 0.00 | 76 | 1014.5 |
| 20260504190017 | 30 | 109 | 11.3 | 29.0 | 0.00 | 0.00 | 0.00 | 76 | 1014.6 |
| 20260504184519 | 30 | 62 | 9.7 | 33.8 | 0.00 | 0.00 | 0.00 | 76 | 1014.9 |
| 20260504183030 | 31 | 100 | 8.0 | 29.0 | 0.00 | 0.00 | 0.00 | 73 | 1014.9 |
| 20260504181508 | 30 | 159 | 16.1 | 32.2 | 0.00 | 0.00 | 0.00 | 72 | 1015.0 |
| 20260504180013 | 30 | 129 | 14.5 | 30.6 | 0.00 | 0.00 | 0.00 | 71 | 1015.0 |
| 20260504174519 | 31 | 171 | 19.3 | 32.2 | 0.00 | 0.00 | 0.00 | 66 | 1015.1 |
| 20260504173024 | 31 | 129 | 16.1 | 37.0 | 0.00 | 0.00 | 0.00 | 65 | 1015.3 |
| 20260504171524 | 31 | 73 | 8.0 | 24.1 | 0.00 | 0.00 | 0.00 | 62 | 1015.5 |